Manistique, MI

8:42 PM EDT on September 25, 2016 (GMT -0400)
Schoolcraft County

Weather History for KISQ - May, 2013

Change the Weather History Date:

Friday, May 10, 2013

  Actual Average Record
Temperature  
Mean Temperature 42 °F -  
Max Temperature 51 °F 56 °F 75 °F (1975)
Min Temperature 30 °F 37 °F 20 °F (1966)
Degree Days  
Heating Degree Days 24    
Moisture  
Dew Point 33 °F    
Average Humidity 79    
Maximum Humidity 93    
Minimum Humidity 47    
Precipitation  
Precipitation 0.00 in - - ()
Sea Level Pressure  
Sea Level Pressure 30.02 in    
Wind  
Wind Speed 11 mph (NNE)    
Max Wind Speed 18 mph    
Max Gust Speed 23 mph    
Visibility 10 miles    
Events Rain    
Averages and records for this station are not official NWS values.
T = Trace of Precipitation, MM = Missing Value Source: NWS Daily Summary

Daily Weather History Graph

Daily Weather History Graph

Search for Another Location

Airport or City:

Trip Planner

Search our weather history database for the weather conditions in past years. The results will help you decide how hot, cold, wet, or windy it might be!

Date:

Astronomy

May. 10, 2013 Rise Set
Actual Time 6:18 AM EDT 9:04 PM EDT
Civil Twilight 5:44 AM EDT 9:38 PM EDT
Nautical Twilight 5:00 AM EDT 10:22 PM EDT
Astronomical Twilight 4:09 AM EDT 11:14 PM EDT
Moon 6:42 AM EDT (5/10) 9:54 PM EDT (5/10)
Length of Visible Light 15h 54m
Length of Day
14h 45m
New Moon, 0% of the Moon is Illuminated
May 10
New Moon
May 18
First Quarter
May 25
Full
May 31
Last Quarter
Jun 8
New

Hourly Weather History & Observations

Time (EDT) Temp. Windchill Dew Point Humidity Pressure Visibility Wind Dir Wind Speed Gust Speed Precip Events Conditions
12:15 AM 37.4 °F 28.5 °F 35.6 °F 93% 30.08 in 10.0 mi North 15.0 mph 21.9 mph N/A Rain Light Rain
12:34 AM 37.4 °F 28.5 °F 35.6 °F 93% 30.08 in 10.0 mi North 15.0 mph 21.9 mph N/A Rain Light Rain
1:15 AM 37.4 °F 28.9 °F 35.6 °F 93% 30.09 in 7.0 mi North 13.8 mph 21.9 mph N/A Rain Light Rain
2:14 AM 37.4 °F 29.8 °F 33.8 °F 87% 30.09 in 10.0 mi North 11.5 mph - N/A Rain Light Rain
2:35 AM 37.4 °F 29.3 °F 33.8 °F 87% 30.08 in 7.0 mi North 12.7 mph 18.4 mph N/A Rain Light Rain
2:55 AM 35.6 °F 27.1 °F 33.8 °F 93% 30.08 in 7.0 mi North 12.7 mph - N/A Rain Light Rain
3:14 AM 35.6 °F 26.2 °F 33.8 °F 93% 30.07 in 7.0 mi North 15.0 mph - N/A Rain Light Rain
3:35 AM 35.6 °F 26.2 °F 33.8 °F 93% 30.07 in 5.0 mi North 15.0 mph 21.9 mph N/A Rain Light Rain
3:54 AM 35.6 °F 25.9 °F 33.8 °F 93% 30.06 in 7.0 mi North 16.1 mph 20.7 mph N/A Rain Light Rain
4:14 AM 35.6 °F 25.2 °F 33.8 °F 93% 30.06 in 10.0 mi North 18.4 mph 21.9 mph N/A Rain Light Rain
4:35 AM 35.6 °F 26.2 °F 33.8 °F 93% 30.06 in 7.0 mi NNE 15.0 mph 20.7 mph N/A Rain Light Rain
4:54 AM 35.6 °F 26.2 °F 32.0 °F 87% 30.05 in 7.0 mi North 15.0 mph 20.7 mph N/A   Overcast
5:15 AM 35.6 °F 27.1 °F 32.0 °F 87% 30.05 in 10.0 mi North 12.7 mph - N/A   Overcast
5:35 AM 35.6 °F 26.2 °F 33.8 °F 93% 30.05 in 10.0 mi North 15.0 mph - N/A   Overcast
5:54 AM 35.6 °F 27.1 °F 32.0 °F 87% 30.05 in 10.0 mi North 12.7 mph - N/A Rain Light Rain
6:15 AM 35.6 °F 27.5 °F 32.0 °F 87% 30.05 in 10.0 mi NNE 11.5 mph 17.3 mph N/A Rain Light Rain
6:34 AM 35.6 °F 26.6 °F 32.0 °F 87% 30.05 in 10.0 mi NNE 13.8 mph 18.4 mph N/A   Light Drizzle
6:55 AM 35.6 °F 26.6 °F 32.0 °F 87% 30.05 in 10.0 mi North 13.8 mph 19.6 mph N/A   Overcast
7:15 AM 35.6 °F 26.6 °F 32.0 °F 87% 30.05 in 10.0 mi North 13.8 mph - N/A   Overcast
7:34 AM 35.6 °F 26.2 °F 32.0 °F 87% 30.05 in 10.0 mi North 15.0 mph 21.9 mph N/A   Overcast
8:14 AM 35.6 °F 26.2 °F 30.2 °F 81% 30.05 in 10.0 mi North 15.0 mph 23.0 mph N/A   Overcast
8:35 AM 35.6 °F 27.5 °F 32.0 °F 87% 30.06 in 10.0 mi North 11.5 mph 20.7 mph N/A   Overcast
9:14 AM 35.6 °F 26.2 °F 32.0 °F 87% 30.06 in 10.0 mi North 15.0 mph 20.7 mph N/A   Overcast
9:35 AM 35.6 °F 27.1 °F 32.0 °F 87% 30.06 in 10.0 mi NNE 12.7 mph 17.3 mph N/A   Overcast
9:54 AM 35.6 °F 27.5 °F 32.0 °F 87% 30.06 in 10.0 mi North 11.5 mph - N/A   Overcast
10:14 AM 37.4 °F 29.8 °F 32.0 °F 81% 30.06 in 10.0 mi NNE 11.5 mph - N/A   Overcast
10:35 AM 37.4 °F 28.9 °F 33.8 °F 87% 30.05 in 10.0 mi NNE 13.8 mph - N/A   Overcast
10:54 AM 37.4 °F 29.8 °F 33.8 °F 87% 30.05 in 10.0 mi North 11.5 mph - N/A   Overcast
11:15 AM 39.2 °F 32.0 °F 32.0 °F 75% 30.05 in 10.0 mi North 11.5 mph - N/A   Overcast
11:35 AM 39.2 °F 30.8 °F 32.0 °F 75% 30.04 in 10.0 mi North 15.0 mph - N/A   Overcast
11:54 AM 39.2 °F 32.0 °F 32.0 °F 75% 30.05 in 10.0 mi NNE 11.5 mph - N/A   Overcast
12:15 PM 39.2 °F 32.0 °F 32.0 °F 75% 30.05 in 10.0 mi North 11.5 mph - N/A   Overcast
12:34 PM 41.0 °F 35.2 °F 33.8 °F 76% 30.05 in 10.0 mi NNE 9.2 mph - N/A   Overcast
1:15 PM 42.8 °F 38.0 °F 33.8 °F 70% 30.04 in 10.0 mi North 8.1 mph 16.1 mph N/A   Overcast
1:34 PM 44.6 °F 39.7 °F 33.8 °F 66% 30.03 in 10.0 mi NNE 9.2 mph - N/A   Overcast
1:55 PM 42.8 °F 37.0 °F 33.8 °F 70% 30.03 in 10.0 mi NE 10.4 mph - N/A   Overcast
2:14 PM 44.6 °F 40.7 °F 35.6 °F 71% 30.03 in 10.0 mi North 6.9 mph - N/A   Overcast
2:35 PM 44.6 °F 40.7 °F 35.6 °F 71% 30.02 in 10.0 mi North 6.9 mph - N/A   Overcast
2:55 PM 44.6 °F 40.2 °F 35.6 °F 71% 30.02 in 10.0 mi NNE 8.1 mph - N/A   Overcast
3:14 PM 44.6 °F 40.2 °F 35.6 °F 71% 30.02 in 10.0 mi NNE 8.1 mph - N/A   Overcast
3:35 PM 46.4 °F 42.9 °F 35.6 °F 66% 30.01 in 10.0 mi NE 6.9 mph - N/A   Overcast
3:54 PM 46.4 °F 43.5 °F 35.6 °F 66% 30.01 in 10.0 mi NNE 5.8 mph - N/A   Overcast
4:14 PM 46.4 °F 43.5 °F 35.6 °F 66% 30.01 in 10.0 mi NNE 5.8 mph - N/A   Overcast
4:35 PM 46.4 °F 43.5 °F 35.6 °F 66% 30.01 in 10.0 mi NNE 5.8 mph - N/A   Overcast
4:54 PM 48.2 °F - 35.6 °F 62% 30.01 in 10.0 mi NNE 4.6 mph - N/A   Overcast
5:15 PM 48.2 °F - 33.8 °F 58% 30.00 in 10.0 mi North 8.1 mph - N/A   Overcast
5:35 PM 48.2 °F - 35.6 °F 62% 29.99 in 10.0 mi North 5.8 mph - N/A   Overcast
5:54 PM 50.0 °F - 33.8 °F 54% 29.98 in 10.0 mi NE 5.8 mph - N/A   Overcast
6:15 PM 50.0 °F - 33.8 °F 54% 29.97 in 10.0 mi NNE 4.6 mph - N/A   Mostly Cloudy
6:34 PM 50.0 °F - 33.8 °F 54% 29.97 in 10.0 mi NNW 3.5 mph - N/A   Mostly Cloudy
6:54 PM 51.8 °F - 32.0 °F 47% 29.96 in 10.0 mi NNE 3.5 mph - N/A   Mostly Cloudy
7:15 PM 48.2 °F - 37.4 °F 66% 29.96 in 10.0 mi South 4.6 mph - N/A   Scattered Clouds
7:34 PM 46.4 °F 42.9 °F 35.6 °F 66% 29.96 in 10.0 mi SSE 6.9 mph - N/A   Clear
7:55 PM 44.6 °F 40.7 °F 35.6 °F 71% 29.96 in 10.0 mi SSE 6.9 mph - N/A   Clear
8:14 PM 42.8 °F 40.1 °F 35.6 °F 76% 29.96 in 10.0 mi SSE 4.6 mph - N/A   Clear
8:35 PM 42.8 °F - 33.8 °F 70% 29.96 in 10.0 mi Calm Calm - N/A   Clear
8:55 PM 41.0 °F - 35.6 °F 81% 29.96 in 10.0 mi Calm Calm - N/A   Clear
9:14 PM 37.4 °F - 33.8 °F 87% 29.96 in 10.0 mi Calm Calm - N/A   Clear
9:35 PM 37.4 °F - 33.8 °F 87% 29.97 in 10.0 mi Calm Calm - N/A   Clear
9:55 PM 35.6 °F - 32.0 °F 87% 29.97 in 10.0 mi Calm Calm - N/A   Clear
10:14 PM 35.6 °F - 30.2 °F 81% 29.97 in 10.0 mi Calm Calm - N/A   Clear
10:35 PM 33.8 °F 30.8 °F 30.2 °F 87% 29.97 in 10.0 mi WNW 3.5 mph - N/A   Clear
10:54 PM 33.8 °F - 30.2 °F 87% 29.96 in 10.0 mi Calm Calm - N/A   Clear
11:14 PM 32.0 °F - 28.4 °F 87% 29.95 in 10.0 mi Calm Calm - N/A   Clear
11:35 PM 32.0 °F - 28.4 °F 87% 29.94 in 10.0 mi Calm Calm - N/A   Clear
11:54 PM 30.2 °F - 28.4 °F 93% 29.94 in 10.0 mi Calm Calm - N/A   Clear